createdAt,value
2019-06-07T00:03:32.232Z,16.73
2019-06-07T00:08:37.871Z,16.78
2019-06-07T00:13:43.176Z,16.60
2019-06-07T00:18:48.470Z,16.67
2019-06-07T00:23:54.416Z,16.59
2019-06-07T00:29:02.616Z,16.50
2019-06-07T00:34:10.319Z,17.10
2019-06-07T00:39:20.298Z,17.07
2019-06-07T00:44:23.494Z,16.95
2019-06-07T00:49:40.339Z,16.31
2019-06-07T00:54:37.993Z,17.03
2019-06-07T00:59:43.120Z,16.87
2019-06-07T01:04:48.548Z,16.97
2019-06-07T01:09:53.970Z,16.77
2019-06-07T01:14:59.194Z,16.59
2019-06-07T01:20:06.407Z,16.67
2019-06-07T01:25:13.753Z,16.80
2019-06-07T01:30:23.269Z,16.82
2019-06-07T01:35:26.964Z,16.99
2019-06-07T01:40:33.777Z,16.80
2019-06-07T01:45:39.956Z,16.68
2019-06-07T01:50:45.472Z,16.60
2019-06-07T01:55:51.073Z,16.32
2019-06-07T02:00:56.418Z,16.41
2019-06-07T02:06:01.766Z,15.93
2019-06-07T02:11:07.244Z,16.12
2019-06-07T02:16:14.625Z,15.99
2019-06-07T02:21:23.151Z,16.10
2019-06-07T02:26:30.009Z,16.23
2019-06-07T02:31:39.068Z,16.01
2019-06-07T02:36:41.898Z,15.96
2019-06-07T02:41:47.573Z,15.91
2019-06-07T02:46:52.847Z,16.09
2019-06-07T02:51:58.224Z,15.86
2019-06-07T02:57:05.110Z,16.07
2019-06-07T03:02:10.271Z,16.02
2019-06-07T03:07:17.580Z,15.86
2019-06-07T03:12:23.501Z,15.66
2019-06-07T03:17:47.921Z,15.68
2019-06-07T03:22:53.430Z,15.48
2019-06-07T03:27:58.836Z,15.67
2019-06-07T03:33:04.296Z,15.71
2019-06-07T03:38:09.733Z,15.72
2019-06-07T03:43:14.892Z,15.54
2019-06-07T03:48:20.539Z,15.70
2019-06-07T03:53:29.211Z,15.70
2019-06-07T03:58:44.629Z,15.76
2019-06-07T04:03:46.972Z,15.78
2019-06-07T04:08:48.487Z,15.92
2019-06-07T04:13:53.834Z,15.59
2019-06-07T04:18:59.011Z,15.85
2019-06-07T04:24:04.515Z,16.03
2019-06-07T04:29:32.245Z,16.01
2019-06-07T04:34:16.654Z,15.84
2019-06-07T04:39:23.670Z,15.91
2019-06-07T04:44:28.992Z,16.28
2019-06-07T04:49:39.227Z,16.86
2019-06-07T04:54:45.845Z,16.79
2019-06-07T05:00:33.746Z,16.97
2019-06-07T05:04:56.895Z,17.16
2019-06-07T05:10:02.491Z,17.47
2019-06-07T05:15:08.029Z,18.02
2019-06-07T05:20:14.261Z,17.89
2019-06-07T05:25:19.645Z,17.45
2019-06-07T05:35:44.806Z,17.60
2019-06-07T05:40:50.030Z,17.70
2019-06-07T05:45:55.494Z,17.77
2019-06-07T05:51:00.819Z,18.61
2019-06-07T05:56:06.438Z,18.83
2019-06-07T06:01:41.999Z,19.12
2019-06-07T06:06:19.533Z,20.32
2019-06-07T06:11:42.973Z,19.26
2019-06-07T06:16:31.963Z,18.67
2019-06-07T06:21:38.535Z,20.02
2019-06-07T06:26:51.189Z,20.68
2019-06-07T06:32:39.444Z,19.00
2019-06-07T06:36:58.617Z,18.73
2019-06-07T06:42:04.044Z,18.97
2019-06-07T06:47:09.139Z,18.47
2019-06-07T06:52:14.349Z,18.56
2019-06-07T06:57:21.985Z,18.28
2019-06-07T07:02:28.785Z,18.80
2019-06-07T07:07:36.239Z,18.74
2019-06-07T07:12:42.920Z,17.95
2019-06-07T07:18:00.683Z,17.99
2019-06-07T07:22:57.077Z,17.79
2019-06-07T07:28:02.677Z,17.62
2019-06-07T07:33:07.946Z,17.48
2019-06-07T07:38:15.009Z,17.83
2019-06-07T07:43:22.135Z,17.88
2019-06-07T07:48:27.310Z,17.67
2019-06-07T07:53:48.583Z,18.08
2019-06-07T07:58:41.840Z,18.55
2019-06-07T08:03:48.157Z,18.83
2019-06-07T08:08:57.029Z,19.09
2019-06-07T08:14:05.180Z,18.63
2019-06-07T08:19:14.754Z,18.80
2019-06-07T08:24:20.008Z,18.60
2019-06-07T08:29:43.844Z,18.94
2019-06-07T08:34:35.006Z,18.89
2019-06-07T08:39:41.664Z,18.92
2019-06-07T08:44:47.267Z,18.88
2019-06-07T08:49:59.606Z,18.77
2019-06-07T08:55:04.921Z,19.07
2019-06-07T09:00:42.561Z,19.21
2019-06-07T09:05:20.887Z,19.77
2019-06-07T09:10:26.487Z,20.11
2019-06-07T09:15:31.875Z,19.89
2019-06-07T09:20:51.261Z,19.57
2019-06-07T09:26:07.917Z,18.58
2019-06-07T09:31:10.386Z,18.02
2019-06-07T09:36:14.921Z,18.07
2019-06-07T09:41:21.664Z,18.67
2019-06-07T09:46:27.229Z,19.28
2019-06-07T09:51:32.361Z,19.78
2019-06-07T09:56:39.237Z,20.13
2019-06-07T10:01:44.582Z,19.73
2019-06-07T10:06:50.563Z,19.85
2019-06-07T10:11:58.207Z,18.98
2019-06-07T10:17:03.437Z,19.48
2019-06-07T10:22:09.710Z,18.98
2019-06-07T10:27:15.010Z,19.00
2019-06-07T10:32:20.293Z,19.44
2019-06-07T10:37:25.873Z,19.31
2019-06-07T10:42:34.419Z,19.19
2019-06-07T10:47:39.708Z,19.26
2019-06-07T10:52:44.855Z,19.96
2019-06-07T10:57:50.941Z,20.02
2019-06-07T11:02:56.541Z,19.79
2019-06-07T11:08:01.779Z,19.57
2019-06-07T11:13:08.248Z,20.04
2019-06-07T11:18:14.466Z,20.77
2019-06-07T11:23:21.032Z,20.13
2019-06-07T11:28:28.205Z,20.12
2019-06-07T11:33:33.427Z,20.41
2019-06-07T11:38:40.990Z,20.22
2019-06-07T11:43:48.571Z,20.28
2019-06-07T11:48:53.902Z,20.33
2019-06-07T11:53:59.044Z,20.30
2019-06-07T11:59:04.362Z,20.58
2019-06-07T12:04:09.606Z,20.25
2019-06-07T12:09:16.670Z,21.08
2019-06-07T12:14:21.800Z,20.54
2019-06-07T12:19:27.082Z,20.97
2019-06-07T12:24:32.838Z,20.66
2019-06-07T12:29:38.003Z,21.20
2019-06-07T12:34:45.758Z,21.64
2019-06-07T12:39:51.052Z,21.62
2019-06-07T12:44:57.021Z,22.02
2019-06-07T12:50:02.445Z,22.20
2019-06-07T12:55:07.831Z,22.09
2019-06-07T13:00:16.139Z,22.05
2019-06-07T13:05:23.883Z,22.20
2019-06-07T13:10:32.073Z,22.22
2019-06-07T13:15:37.262Z,22.49
2019-06-07T13:20:44.682Z,22.16
2019-06-07T13:25:50.085Z,21.88
2019-06-07T13:30:55.346Z,22.83
2019-06-07T13:36:00.819Z,22.62
2019-06-07T13:41:05.999Z,22.53
2019-06-07T13:46:13.028Z,22.87
2019-06-07T13:51:19.190Z,23.42
2019-06-07T13:56:26.074Z,22.67
2019-06-07T14:01:32.410Z,22.63
2019-06-07T14:06:37.837Z,22.69
2019-06-07T14:11:50.439Z,23.11
2019-06-07T14:16:51.990Z,22.86
2019-06-07T14:21:57.520Z,23.93
2019-06-07T14:27:09.000Z,23.74
2019-06-07T14:32:14.249Z,23.00
2019-06-07T14:37:19.498Z,23.69
2019-06-07T14:42:25.375Z,23.07
2019-06-07T14:47:32.009Z,23.77
2019-06-07T14:52:37.371Z,23.09
2019-06-07T14:57:44.133Z,23.64
2019-06-07T15:02:50.693Z,23.54
2019-06-07T15:07:56.145Z,23.64
2019-06-07T15:13:01.408Z,23.93
2019-06-07T15:18:07.612Z,23.78
2019-06-07T15:23:13.768Z,24.00
2019-06-07T15:28:19.295Z,23.64
2019-06-07T15:33:24.501Z,23.57
2019-06-07T15:38:31.039Z,23.67
2019-06-07T15:43:37.397Z,23.76
2019-06-07T15:48:45.015Z,24.44
2019-06-07T15:53:50.199Z,23.74
2019-06-07T15:58:55.468Z,23.59
2019-06-07T16:04:00.754Z,23.42
2019-06-07T16:09:08.366Z,23.40
2019-06-07T16:14:14.915Z,23.42
2019-06-07T16:19:20.117Z,23.64
2019-06-07T16:24:25.259Z,23.92
2019-06-07T16:29:30.556Z,24.26
2019-06-07T16:34:37.811Z,24.18
2019-06-07T16:39:42.794Z,24.32
2019-06-07T16:44:50.420Z,24.32
2019-06-07T16:49:55.614Z,24.21
2019-06-07T16:55:01.164Z,24.14
2019-06-07T17:00:07.354Z,23.81
2019-06-07T17:05:14.219Z,23.57
2019-06-07T17:10:20.046Z,23.69
2019-06-07T17:15:28.671Z,23.92
2019-06-07T17:20:33.828Z,24.14
2019-06-07T17:25:39.509Z,24.21
2019-06-07T17:30:46.094Z,23.99
2019-06-07T17:35:52.381Z,23.82
2019-06-07T17:40:57.613Z,23.92
2019-06-07T17:46:02.812Z,23.92
2019-06-07T17:51:09.111Z,23.70
2019-06-07T17:56:14.521Z,23.87
2019-06-07T18:01:21.758Z,23.74
2019-06-07T18:06:27.161Z,23.25
2019-06-07T18:11:32.524Z,23.01
2019-06-07T18:16:38.043Z,22.89
2019-06-07T18:21:44.883Z,22.95
2019-06-07T18:26:50.546Z,22.69
2019-06-07T18:31:56.269Z,22.45
2019-06-07T18:37:01.532Z,22.21
2019-06-07T18:42:06.861Z,22.22
2019-06-07T18:47:12.193Z,21.93
2019-06-07T18:52:21.313Z,21.91
2019-06-07T18:57:26.737Z,21.64
2019-06-07T19:02:31.927Z,21.48
2019-06-07T19:07:37.137Z,21.36
2019-06-07T19:12:43.434Z,21.24
2019-06-07T19:17:49.728Z,20.94
2019-06-07T19:22:56.382Z,20.89
2019-06-07T19:28:01.859Z,20.63
2019-06-07T19:33:07.351Z,20.38
2019-06-07T19:38:12.591Z,20.13
2019-06-07T19:43:17.786Z,20.14
2019-06-07T19:48:22.998Z,20.06
2019-06-07T19:53:28.322Z,19.91
2019-06-07T19:58:33.848Z,19.80
2019-06-07T20:03:40.010Z,19.67
2019-06-07T20:08:45.304Z,19.57
2019-06-07T20:13:50.754Z,19.59
2019-06-07T20:18:56.280Z,19.56
2019-06-07T20:24:17.629Z,19.60
2019-06-07T20:29:24.818Z,19.36
2019-06-07T20:34:16.671Z,19.24
2019-06-07T20:39:22.235Z,19.08
2019-06-07T20:44:27.749Z,18.98
2019-06-07T20:49:33.128Z,18.82
2019-06-07T20:54:38.264Z,18.79
2019-06-07T20:59:43.567Z,18.87
2019-06-07T21:04:48.818Z,18.90
2019-06-07T21:09:54.124Z,18.95
2019-06-07T21:15:02.141Z,18.94
2019-06-07T21:20:08.147Z,18.96
2019-06-07T21:25:13.966Z,18.92
2019-06-07T21:30:19.250Z,18.89
2019-06-07T21:35:26.102Z,18.79
2019-06-07T21:40:33.097Z,18.81
2019-06-07T21:45:38.722Z,18.64
2019-06-07T21:50:46.745Z,18.66
2019-06-07T21:55:51.989Z,18.74
2019-06-07T22:01:23.422Z,18.54
2019-06-07T22:06:28.535Z,18.58
2019-06-07T22:11:34.165Z,18.49
2019-06-07T22:16:40.448Z,18.51
2019-06-07T22:21:59.248Z,18.65
2019-06-07T22:26:52.950Z,18.75
2019-06-07T22:31:58.863Z,18.69
2019-06-07T22:37:05.092Z,18.76
2019-06-07T22:42:11.972Z,18.54
2019-06-07T22:47:18.316Z,18.47
2019-06-07T22:52:23.568Z,18.36
2019-06-07T22:57:30.765Z,18.33
2019-06-07T23:02:36.084Z,18.39
2019-06-07T23:07:41.347Z,18.58
2019-06-07T23:12:46.574Z,18.63
2019-06-07T23:17:51.908Z,18.59
2019-06-07T23:22:57.188Z,18.73
2019-06-07T23:28:02.364Z,18.65
2019-06-07T23:33:07.905Z,19.02
2019-06-07T23:38:13.257Z,19.07
2019-06-07T23:43:19.620Z,18.93
2019-06-07T23:48:25.031Z,18.95
2019-06-07T23:53:30.285Z,18.98
2019-06-07T23:58:35.441Z,19.12
